Ontario International Airport
KONT : now visible

Airfield :











YOU CAN JOIN US ON...

 
LOGIN :

Register | Disclaimer

   EN    FR    IT 

 









Legend :    VFR   Marginal VFR   IFR   Intensive IFR   Very Intensive IFR
Visi :
Ceiling :
>= 8 km
>= 3000ft
5 to 8 km
1000 to 3000 ft
1500m to 5 km
500 to 1000 ft
800 to 1500m
200 to 500 ft
< 800m
< 200 ft
Symbols :   Thunderstorms  Fog  Heavy snow  Heavy precipitations  Wind > 20 kt






- Airport Elevation : 944 ft
- IATA code : ONT


KONT - Ontario International

CURRENT METAR :
  • 031653Z 00000KT 10SM CLR 26/10 A3001 RMK AO2 SLP149 T02560100

EXPIRED METARs :
  • 031553Z 00000KT 10SM CLR 24/11 A3002 RMK AO2 SLP151 T02390106
  • 031453Z 11003KT 9SM CLR 21/14 A3000 RMK AO2 SLP146 T02060139 51013

TAF KONT
Valid from the 03 at 12:00 until the 04 at 18:00 UTC


031120Z 0312/0418 VRB04KT P6SM SKC
FM032100 25012G20KT P6SM SKC
FM040500 VRB04KT P6SM SKC
KZLA FIR / North America



MET'MAP, your aeronautical weather chart ! - Copyright ORBIFLY December 2007 - Disclaimer

ORBIFLY MET'MAP TEAM :

Programming & Development : Alexandra Zaïnal
Concept & original design : Baudouin d'Aumeries
Assistance for programming : Marc-Olivier Méhu
Technical & hardware support : Manuel Goepfert

Contact : metmap@orbifly.com




SOURCES & CREDITS :

   NOAA       Earth
Advisory